createdAt,value
2024-02-08T00:00:19.206Z,2.40
2024-02-08T00:02:22.521Z,2.50
2024-02-08T00:04:26.048Z,2.40
2024-02-08T00:06:33.456Z,2.20
2024-02-08T00:08:36.798Z,2.47
2024-02-08T00:10:41.166Z,2.10
2024-02-08T00:12:44.595Z,2.83
2024-02-08T00:14:47.116Z,2.30
2024-02-08T00:16:53.915Z,2.22
2024-02-08T00:18:57.287Z,2.25
2024-02-08T00:20:59.863Z,2.05
2024-02-08T00:23:02.577Z,2.30
2024-02-08T00:25:05.728Z,2.35
2024-02-08T00:27:08.384Z,2.35
2024-02-08T00:29:11.099Z,2.10
2024-02-08T00:31:13.661Z,1.92
2024-02-08T00:33:18.782Z,2.40
2024-02-08T00:35:21.675Z,2.53
2024-02-08T00:37:24.187Z,2.22
2024-02-08T00:39:26.940Z,1.98
2024-02-08T00:41:29.410Z,2.42
2024-02-08T00:43:31.912Z,2.13
2024-02-08T00:45:34.722Z,2.00
2024-02-08T00:47:37.314Z,1.90
2024-02-08T00:49:42.918Z,1.83
2024-02-08T00:51:45.471Z,2.13
2024-02-08T00:53:47.923Z,1.92
2024-02-08T00:55:50.568Z,1.92
2024-02-08T00:57:56.025Z,2.10
2024-02-08T00:59:58.508Z,1.73
2024-02-08T01:02:01.015Z,1.90
2024-02-08T01:04:03.623Z,2.10
2024-02-08T01:06:11.039Z,2.03
2024-02-08T01:08:13.992Z,1.67
2024-02-08T01:10:16.517Z,1.95
2024-02-08T01:12:24.857Z,1.70
2024-02-08T01:14:28.069Z,1.92
2024-02-08T01:16:32.811Z,1.83
2024-02-08T01:18:37.340Z,1.40
2024-02-08T01:20:41.295Z,1.80
2024-02-08T01:22:47.335Z,1.70
2024-02-08T01:24:50.568Z,1.70
2024-02-08T01:26:53.966Z,1.50
2024-02-08T01:28:57.228Z,1.80
2024-02-08T01:31:02.530Z,1.70
2024-02-08T01:33:12.812Z,1.63
2024-02-08T01:37:27.247Z,1.63
2024-02-08T01:39:33.009Z,1.60
2024-02-08T01:41:40.400Z,1.50
2024-02-08T01:43:43.745Z,1.50
2024-02-08T01:45:46.164Z,1.50
2024-02-08T01:47:49.425Z,1.65
2024-02-08T01:49:52.081Z,1.70
2024-02-08T01:52:01.968Z,1.50
2024-02-08T01:54:05.664Z,1.30
2024-02-08T01:56:12.715Z,1.38
2024-02-08T01:58:19.305Z,1.33
2024-02-08T02:00:22.019Z,1.48
2024-02-08T02:02:28.591Z,1.20
2024-02-08T02:04:31.957Z,1.10
2024-02-08T02:06:34.754Z,1.10
2024-02-08T02:08:37.481Z,1.15
2024-02-08T02:10:40.493Z,1.30
2024-02-08T02:12:49.843Z,1.40
2024-02-08T02:17:04.930Z,1.27
2024-02-08T02:19:09.120Z,1.20
2024-02-08T02:21:15.303Z,1.10
2024-02-08T02:23:20.564Z,1.20
2024-02-08T02:25:23.191Z,1.40
2024-02-08T02:27:26.127Z,1.30
2024-02-08T02:29:28.735Z,1.15
2024-02-08T02:31:33.914Z,1.20
2024-02-08T02:33:38.245Z,1.20
2024-02-08T02:35:41.121Z,0.98
2024-02-08T02:37:46.964Z,1.25
2024-02-08T02:39:54.341Z,1.02
2024-02-08T02:41:58.039Z,1.23
2024-02-08T02:44:01.309Z,1.38
2024-02-08T02:46:07.057Z,1.25
2024-02-08T02:48:10.911Z,1.08
2024-02-08T02:50:18.446Z,1.00
2024-02-08T02:52:20.995Z,1.40
2024-02-08T02:54:23.810Z,1.23
2024-02-08T02:56:31.750Z,1.10
2024-02-08T02:58:34.306Z,1.20
2024-02-08T03:00:38.087Z,1.25
2024-02-08T03:02:40.913Z,1.08
2024-02-08T03:04:43.458Z,1.10
2024-02-08T03:06:54.462Z,1.20
2024-02-08T03:08:59.386Z,1.00
2024-02-08T03:11:02.003Z,1.27
2024-02-08T03:13:09.402Z,1.17
2024-02-08T03:15:12.307Z,1.20
2024-02-08T03:17:14.795Z,1.00
2024-02-08T03:19:17.404Z,1.20
2024-02-08T03:21:23.723Z,0.98
2024-02-08T03:23:26.676Z,1.02
2024-02-08T03:25:32.408Z,1.10
2024-02-08T03:27:35.179Z,1.10
2024-02-08T03:29:43.302Z,1.20
2024-02-08T03:31:47.081Z,1.10
2024-02-08T03:33:51.576Z,1.08
2024-02-08T03:35:54.989Z,1.10
2024-02-08T03:37:57.885Z,0.98
2024-02-08T03:40:01.024Z,1.00
2024-02-08T03:42:05.903Z,1.25
2024-02-08T03:44:08.394Z,1.05
2024-02-08T03:46:13.512Z,0.90
2024-02-08T03:48:16.944Z,1.08
2024-02-08T03:50:21.251Z,0.90
2024-02-08T03:52:24.840Z,1.00
2024-02-08T03:54:31.977Z,1.00
2024-02-08T03:56:38.559Z,1.30
2024-02-08T03:58:42.219Z,1.05
2024-02-08T04:00:53.915Z,1.00
2024-02-08T04:03:12.235Z,0.90
2024-02-08T04:05:26.359Z,0.80
2024-02-08T04:07:47.174Z,1.13
2024-02-08T04:09:56.615Z,1.00
2024-02-08T04:14:39.873Z,1.10
2024-02-08T04:17:01.966Z,0.90
2024-02-08T04:19:27.727Z,1.00
2024-02-08T04:21:49.812Z,0.88
2024-02-08T04:24:11.600Z,1.10
2024-02-08T04:26:33.511Z,1.02
2024-02-08T04:28:55.477Z,1.05
2024-02-08T04:31:17.090Z,1.30
2024-02-08T04:33:38.955Z,0.90
2024-02-08T04:36:03.577Z,0.90
2024-02-08T04:38:26.360Z,0.95
2024-02-08T04:40:49.388Z,0.88
2024-02-08T04:43:11.463Z,1.02
2024-02-08T04:45:33.534Z,1.00
2024-02-08T04:47:55.134Z,0.90
2024-02-08T04:50:17.690Z,0.98
2024-02-08T04:52:42.454Z,1.10
2024-02-08T04:54:45.761Z,1.08
2024-02-08T04:56:49.054Z,1.00
2024-02-08T05:01:03.143Z,1.00
2024-02-08T05:03:06.497Z,0.90
2024-02-08T05:05:12.614Z,0.95
2024-02-08T05:07:16.289Z,1.13
2024-02-08T05:09:23.155Z,0.98
2024-02-08T05:11:30.410Z,1.00
2024-02-08T05:13:33.945Z,0.95
2024-02-08T05:15:37.139Z,0.90
2024-02-08T05:17:40.452Z,0.90
2024-02-08T05:19:46.052Z,1.23
2024-02-08T05:21:49.655Z,0.90
2024-02-08T05:23:52.939Z,0.93
2024-02-08T05:25:59.055Z,0.82
2024-02-08T05:28:05.223Z,0.73
2024-02-08T05:30:10.423Z,0.95
2024-02-08T05:32:13.698Z,0.90
2024-02-08T05:34:18.724Z,1.05
2024-02-08T05:36:23.902Z,0.90
2024-02-08T05:38:38.954Z,1.05
2024-02-08T05:40:45.137Z,1.02
2024-02-08T05:42:50.894Z,0.90
2024-02-08T05:45:14.296Z,0.90
2024-02-08T05:47:26.719Z,1.05
2024-02-08T05:49:31.888Z,1.00
2024-02-08T05:51:39.170Z,1.08
2024-02-08T05:53:42.806Z,0.85
2024-02-08T05:55:49.577Z,1.00
2024-02-08T05:58:00.074Z,1.00
2024-02-08T06:00:11.474Z,0.90
2024-02-08T06:02:25.285Z,0.80
2024-02-08T06:04:42.425Z,1.02
2024-02-08T06:06:49.832Z,0.90
2024-02-08T06:08:57.664Z,0.93
2024-02-08T06:11:05.590Z,1.00
2024-02-08T06:13:15.215Z,1.10
2024-02-08T06:15:34.911Z,1.20
2024-02-08T06:19:52.565Z,0.80
2024-02-08T06:21:59.544Z,1.10
2024-02-08T06:24:21.929Z,1.00
2024-02-08T06:26:29.471Z,1.00
2024-02-08T06:28:48.581Z,0.90
2024-02-08T06:30:51.464Z,0.93
2024-02-08T06:33:11.763Z,1.30
2024-02-08T06:35:21.366Z,0.90
2024-02-08T06:39:45.994Z,1.00
2024-02-08T06:41:54.210Z,0.90
2024-02-08T06:44:19.558Z,1.08
2024-02-08T06:46:40.633Z,1.00
2024-02-08T06:49:12.013Z,1.00
2024-02-08T06:51:33.222Z,1.00
2024-02-08T06:53:54.113Z,1.00
2024-02-08T06:56:15.261Z,0.90
2024-02-08T06:58:36.660Z,0.98
2024-02-08T07:01:00.392Z,0.90
2024-02-08T07:03:21.522Z,1.02
2024-02-08T07:05:42.506Z,1.15
2024-02-08T07:08:03.628Z,1.20
2024-02-08T07:10:25.571Z,1.00
2024-02-08T07:12:48.408Z,0.90
2024-02-08T07:15:09.273Z,1.27
2024-02-08T07:17:34.500Z,1.00
2024-02-08T07:19:56.263Z,1.08
2024-02-08T07:22:18.424Z,1.00
2024-02-08T07:24:41.297Z,1.10
2024-02-08T07:27:03.038Z,1.33
2024-02-08T07:29:24.551Z,1.05
2024-02-08T07:31:46.601Z,1.20
2024-02-08T07:34:10.937Z,1.13
2024-02-08T07:36:32.835Z,1.10
2024-02-08T07:38:57.356Z,1.10
2024-02-08T07:41:00.557Z,1.05
2024-02-08T07:43:17.933Z,0.98
2024-02-08T07:45:28.421Z,1.30
2024-02-08T07:47:34.918Z,1.10
2024-02-08T07:49:43.998Z,1.08
2024-02-08T07:51:52.014Z,0.90
2024-02-08T07:53:59.805Z,1.10
2024-02-08T07:56:23.706Z,1.00
2024-02-08T07:58:28.740Z,1.00
2024-02-08T08:00:51.257Z,1.05
2024-02-08T08:02:56.301Z,1.00
2024-02-08T08:05:03.224Z,0.90
2024-02-08T08:07:11.405Z,0.90
2024-02-08T08:09:22.837Z,1.02
2024-02-08T08:11:32.753Z,1.20
2024-02-08T08:13:54.828Z,1.00
2024-02-08T08:16:17.441Z,1.05
2024-02-08T08:18:31.517Z,1.20
2024-02-08T08:20:57.996Z,1.23
2024-02-08T08:23:01.836Z,1.20
2024-02-08T08:25:13.523Z,1.30
2024-02-08T08:27:35.002Z,1.23
2024-02-08T08:31:54.857Z,1.17
2024-02-08T08:34:01.404Z,1.25
2024-02-08T08:36:27.860Z,1.00
2024-02-08T08:38:30.518Z,1.30
2024-02-08T08:40:39.204Z,1.20
2024-02-08T08:42:51.786Z,1.13
2024-02-08T08:44:58.799Z,1.17
2024-02-08T08:47:02.536Z,1.52
2024-02-08T08:49:05.783Z,1.40
2024-02-08T08:51:13.499Z,1.20
2024-02-08T08:53:21.178Z,1.30
2024-02-08T08:55:24.651Z,1.20
2024-02-08T08:57:27.805Z,1.20
2024-02-08T08:59:34.210Z,1.40
2024-02-08T09:01:42.455Z,1.10
2024-02-08T09:03:46.765Z,1.30
2024-02-08T09:05:52.006Z,1.13
2024-02-08T09:07:58.070Z,1.23
2024-02-08T09:10:03.367Z,1.35
2024-02-08T09:12:09.298Z,1.27
2024-02-08T09:14:17.439Z,1.15
2024-02-08T09:16:25.796Z,1.23
2024-02-08T09:18:59.227Z,1.20
2024-02-08T09:21:06.424Z,1.30
2024-02-08T09:23:18.657Z,1.23
2024-02-08T09:25:31.366Z,1.20
2024-02-08T09:27:48.446Z,1.30
2024-02-08T09:29:58.152Z,1.30
2024-02-08T09:32:17.170Z,1.60
2024-02-08T09:34:21.190Z,1.17
2024-02-08T09:36:27.120Z,1.40
2024-02-08T09:38:46.358Z,1.30
2024-02-08T09:40:52.617Z,1.10
2024-02-08T09:42:58.953Z,1.15
2024-02-08T09:45:40.375Z,1.25
2024-02-08T09:47:53.791Z,1.35
2024-02-08T09:50:02.106Z,1.27
2024-02-08T09:52:18.329Z,1.45
2024-02-08T09:54:33.437Z,1.25
2024-02-08T09:56:40.717Z,1.55
2024-02-08T10:01:03.934Z,1.33
2024-02-08T10:03:09.011Z,1.10
2024-02-08T10:05:41.497Z,1.25
2024-02-08T10:08:03.667Z,1.27
2024-02-08T10:10:19.380Z,1.13
2024-02-08T10:12:30.579Z,1.33
2024-02-08T10:14:34.417Z,1.33
2024-02-08T10:16:44.172Z,1.20
2024-02-08T10:18:58.564Z,1.30
2024-02-08T10:21:14.709Z,1.10
2024-02-08T10:23:39.685Z,1.30
2024-02-08T10:26:04.463Z,1.38
2024-02-08T10:28:09.087Z,0.90
2024-02-08T10:30:13.818Z,0.90
2024-02-08T10:32:20.130Z,1.10
2024-02-08T10:34:34.226Z,1.00
2024-02-08T10:36:41.195Z,1.00
2024-02-08T10:39:00.842Z,1.02
2024-02-08T10:41:13.267Z,0.93
2024-02-08T10:43:19.252Z,1.00
2024-02-08T10:45:24.491Z,1.27
2024-02-08T10:47:42.494Z,0.90
2024-02-08T10:49:48.680Z,0.88
2024-02-08T10:51:51.754Z,1.00
2024-02-08T10:54:07.059Z,1.02
2024-02-08T10:56:17.820Z,0.90
2024-02-08T10:58:30.831Z,1.17
2024-02-08T11:00:42.200Z,0.88
2024-02-08T11:03:01.927Z,0.85
2024-02-08T11:05:18.821Z,0.90
2024-02-08T11:07:35.098Z,0.80
2024-02-08T11:09:37.835Z,0.77
2024-02-08T11:11:53.020Z,0.70
2024-02-08T11:13:56.038Z,0.60
2024-02-08T11:16:16.893Z,0.73
2024-02-08T11:18:37.387Z,0.98
2024-02-08T11:20:46.040Z,0.70
2024-02-08T11:22:58.736Z,0.80
2024-02-08T11:25:11.060Z,0.60
2024-02-08T11:27:29.246Z,0.70
2024-02-08T11:29:42.871Z,0.75
2024-02-08T11:31:47.786Z,0.70
2024-02-08T11:33:57.504Z,0.80
2024-02-08T11:36:15.644Z,0.70
2024-02-08T11:38:28.301Z,0.80
2024-02-08T11:40:37.546Z,0.80
2024-02-08T11:42:43.946Z,0.70
2024-02-08T11:44:47.216Z,0.98
2024-02-08T11:46:52.820Z,0.90
2024-02-08T11:49:11.276Z,0.90
2024-02-08T11:51:17.113Z,0.70
2024-02-08T11:53:32.780Z,0.80
2024-02-08T11:55:37.201Z,0.80
2024-02-08T11:57:43.392Z,0.60
2024-02-08T11:59:47.309Z,0.70
2024-02-08T12:01:50.972Z,0.73
2024-02-08T12:03:55.466Z,1.17
2024-02-08T12:05:59.921Z,0.82
2024-02-08T12:08:11.962Z,0.70
2024-02-08T12:10:16.819Z,0.70
2024-02-08T12:12:26.947Z,0.90
2024-02-08T12:14:32.981Z,0.90
2024-02-08T12:16:36.442Z,0.85
2024-02-08T12:18:39.022Z,0.75
2024-02-08T12:20:45.222Z,0.77
2024-02-08T12:22:54.619Z,0.93
2024-02-08T12:27:12.853Z,0.80
2024-02-08T12:29:19.027Z,0.70
2024-02-08T12:31:25.691Z,0.70
2024-02-08T12:33:30.360Z,0.80
2024-02-08T12:35:34.589Z,0.90
2024-02-08T12:37:37.243Z,0.80
2024-02-08T12:39:44.542Z,0.93
2024-02-08T12:41:47.125Z,0.70
2024-02-08T12:43:53.161Z,0.50
2024-02-08T12:45:56.083Z,0.80
2024-02-08T12:48:06.205Z,0.57
2024-02-08T12:50:19.260Z,0.65
2024-02-08T12:52:28.486Z,0.70
2024-02-08T12:54:31.019Z,0.73
2024-02-08T12:56:33.462Z,0.75
2024-02-08T12:58:36.238Z,0.57
2024-02-08T13:00:39.219Z,0.75
2024-02-08T13:02:42.303Z,0.60
2024-02-08T13:04:52.331Z,1.10
2024-02-08T13:06:56.305Z,0.55
2024-02-08T13:09:18.555Z,0.50
2024-02-08T13:11:24.310Z,0.60
2024-02-08T13:13:27.328Z,0.55
2024-02-08T13:15:33.948Z,0.70
2024-02-08T13:17:39.488Z,0.60
2024-02-08T13:19:43.252Z,1.00
2024-02-08T13:21:48.398Z,0.68
2024-02-08T13:23:50.889Z,0.65
2024-02-08T13:25:58.059Z,0.73
2024-02-08T13:28:01.300Z,0.50
2024-02-08T13:30:04.034Z,0.57
2024-02-08T13:32:07.110Z,0.63
2024-02-08T13:34:11.046Z,0.60
2024-02-08T13:36:13.716Z,0.70
2024-02-08T13:38:24.589Z,0.60
2024-02-08T13:40:27.885Z,0.57
2024-02-08T13:42:43.107Z,0.55
2024-02-08T13:44:55.518Z,0.50
2024-02-08T13:46:58.134Z,0.60
2024-02-08T13:49:00.811Z,0.60
2024-02-08T13:51:08.828Z,0.38
2024-02-08T13:53:22.600Z,0.40
2024-02-08T13:55:45.583Z,0.32
2024-02-08T13:57:55.806Z,0.30
2024-02-08T14:00:05.514Z,0.50
2024-02-08T14:02:17.136Z,0.40
2024-02-08T14:04:23.802Z,0.40
2024-02-08T14:06:27.757Z,0.47
2024-02-08T14:08:31.561Z,0.50
2024-02-08T14:10:38.327Z,0.40
2024-02-08T14:12:46.626Z,0.50
2024-02-08T14:14:53.411Z,0.40
2024-02-08T14:16:57.558Z,0.30
2024-02-08T14:19:01.126Z,0.40
2024-02-08T14:21:04.819Z,0.30
2024-02-08T14:23:15.985Z,0.22
2024-02-08T14:25:25.554Z,0.13
2024-02-08T14:27:31.610Z,0.30
2024-02-08T14:29:38.847Z,0.30
2024-02-08T14:31:43.275Z,0.20
2024-02-08T14:33:47.979Z,0.30
2024-02-08T14:35:53.045Z,0.30
2024-02-08T14:37:56.282Z,0.20
2024-02-08T14:40:02.386Z,0.28
2024-02-08T14:42:13.270Z,0.25
2024-02-08T14:44:19.446Z,0.20
2024-02-08T14:46:27.792Z,0.30
2024-02-08T14:48:39.721Z,0.28
2024-02-08T14:50:55.656Z,0.30
2024-02-08T14:53:02.190Z,0.20
2024-02-08T14:55:22.741Z,0.40
2024-02-08T14:57:27.967Z,0.30
2024-02-08T14:59:52.781Z,0.43
2024-02-08T15:02:14.363Z,0.30
2024-02-08T15:04:17.986Z,0.20
2024-02-08T15:06:39.789Z,0.25
2024-02-08T15:08:48.904Z,0.32
2024-02-08T15:11:01.406Z,0.30
2024-02-08T15:13:13.292Z,0.20
2024-02-08T15:15:32.066Z,0.30
2024-02-08T15:17:44.564Z,0.20
2024-02-08T15:19:48.561Z,0.40
2024-02-08T15:21:54.526Z,0.20
2024-02-08T15:24:09.181Z,0.17
2024-02-08T15:26:14.963Z,0.10
2024-02-08T15:28:37.556Z,0.20
2024-02-08T15:30:50.789Z,0.25
2024-02-08T15:32:59.125Z,0.20
2024-02-08T15:35:06.385Z,0.30
2024-02-08T15:37:17.892Z,0.20
2024-02-08T15:39:37.066Z,0.20
2024-02-08T15:41:52.457Z,0.20
2024-02-08T15:43:58.879Z,0.20
2024-02-08T15:46:05.896Z,0.20
2024-02-08T15:48:15.567Z,0.20
2024-02-08T15:50:18.295Z,0.30
2024-02-08T15:52:23.911Z,0.20
2024-02-08T15:54:38.518Z,0.30
2024-02-08T15:56:41.052Z,0.20
2024-02-08T15:58:46.811Z,0.30
2024-02-08T16:01:09.071Z,0.20
2024-02-08T16:03:19.424Z,0.20
2024-02-08T16:05:24.457Z,0.20
2024-02-08T16:07:34.443Z,0.20
2024-02-08T16:09:39.198Z,0.30
2024-02-08T16:11:44.406Z,0.22
2024-02-08T16:13:54.696Z,0.32
2024-02-08T16:15:59.243Z,0.28
2024-02-08T16:18:23.593Z,0.30
2024-02-08T16:20:40.200Z,0.30
2024-02-08T16:22:54.238Z,0.17
2024-02-08T16:25:04.503Z,0.30
2024-02-08T16:27:14.502Z,0.20
2024-02-08T16:29:21.880Z,0.30
2024-02-08T16:31:33.108Z,0.38
2024-02-08T16:33:56.371Z,0.30
2024-02-08T16:36:23.234Z,0.10
2024-02-08T16:38:33.534Z,0.28
2024-02-08T16:40:45.390Z,0.30
2024-02-08T16:42:49.434Z,0.20
2024-02-08T16:44:52.431Z,0.20
2024-02-08T16:46:57.161Z,0.30
2024-02-08T16:49:05.728Z,0.20
2024-02-08T16:51:11.463Z,0.17
2024-02-08T16:53:20.663Z,0.20
2024-02-08T16:55:24.105Z,0.32
2024-02-08T16:57:32.988Z,0.20
2024-02-08T16:59:47.087Z,0.20
2024-02-08T17:02:06.169Z,0.30
2024-02-08T17:04:12.310Z,0.20
2024-02-08T17:06:18.232Z,0.20
2024-02-08T17:08:31.266Z,0.10
2024-02-08T17:10:47.421Z,0.25
2024-02-08T17:13:01.465Z,0.20
2024-02-08T17:15:22.261Z,0.10
2024-02-08T17:17:36.729Z,0.10
2024-02-08T17:19:48.442Z,0.20
2024-02-08T17:21:53.996Z,0.20
2024-02-08T17:24:03.837Z,0.30
2024-02-08T17:26:17.097Z,0.22
2024-02-08T17:28:32.808Z,0.28
2024-02-08T17:30:56.130Z,0.30
2024-02-08T17:33:02.432Z,0.20
2024-02-08T17:35:05.883Z,0.20
2024-02-08T17:37:15.109Z,0.20
2024-02-08T17:39:35.148Z,0.13
2024-02-08T17:41:39.478Z,0.20
2024-02-08T17:43:51.684Z,0.20
2024-02-08T17:46:04.556Z,0.20
2024-02-08T17:48:13.179Z,0.17
2024-02-08T17:50:31.150Z,0.20
2024-02-08T17:52:39.449Z,0.20
2024-02-08T17:54:53.746Z,0.10
2024-02-08T17:57:03.441Z,0.22
2024-02-08T17:59:17.690Z,0.20
2024-02-08T18:01:33.509Z,0.20
2024-02-08T18:03:37.954Z,0.20
2024-02-08T18:05:41.506Z,0.13
2024-02-08T18:07:48.499Z,0.30
2024-02-08T18:09:56.118Z,0.20
2024-02-08T18:12:14.099Z,0.20
2024-02-08T18:14:19.384Z,0.20
2024-02-08T18:16:24.606Z,0.30
2024-02-08T18:18:28.841Z,0.20
2024-02-08T18:20:35.245Z,0.25
2024-02-08T18:22:42.586Z,0.20
2024-02-08T18:24:52.543Z,0.20
2024-02-08T18:27:02.195Z,0.30
2024-02-08T18:29:05.506Z,0.20
2024-02-08T18:31:09.934Z,0.28
2024-02-08T18:33:18.693Z,0.30
2024-02-08T18:35:25.111Z,0.30
2024-02-08T18:37:29.424Z,0.35
2024-02-08T18:39:39.675Z,0.20
2024-02-08T18:41:52.305Z,0.25
2024-02-08T18:43:56.485Z,0.30
2024-02-08T18:46:00.163Z,0.25
2024-02-08T18:48:05.088Z,0.20
2024-02-08T18:50:09.439Z,0.38
2024-02-08T18:52:14.207Z,0.30
2024-02-08T18:54:37.869Z,0.30
2024-02-08T18:56:43.191Z,0.40
2024-02-08T18:58:53.552Z,0.20
2024-02-08T19:00:56.686Z,0.25
2024-02-08T19:03:09.073Z,0.20
2024-02-08T19:05:17.402Z,0.30
2024-02-08T19:07:20.205Z,0.20
2024-02-08T19:09:27.881Z,0.20
2024-02-08T19:11:30.405Z,0.20
2024-02-08T19:13:33.845Z,0.28
2024-02-08T19:15:41.315Z,0.30
2024-02-08T19:17:48.427Z,0.30
2024-02-08T19:19:56.940Z,0.20
2024-02-08T19:21:59.452Z,0.20
2024-02-08T19:24:05.774Z,0.20
2024-02-08T19:26:12.078Z,0.30
2024-02-08T19:28:23.110Z,0.30
2024-02-08T19:30:25.797Z,0.20
2024-02-08T19:32:33.086Z,0.28
2024-02-08T19:34:39.083Z,0.30
2024-02-08T19:36:53.247Z,0.30
2024-02-08T19:38:56.928Z,0.20
2024-02-08T19:40:59.763Z,0.30
2024-02-08T19:43:04.802Z,0.38
2024-02-08T19:45:18.608Z,0.22
2024-02-08T19:47:28.782Z,0.20
2024-02-08T19:49:35.005Z,0.20
2024-02-08T19:51:37.574Z,0.30
2024-02-08T19:53:40.414Z,0.30
2024-02-08T19:55:43.511Z,0.20
2024-02-08T19:57:50.548Z,0.30
2024-02-08T19:59:55.188Z,0.20
2024-02-08T20:01:59.518Z,0.20
2024-02-08T20:04:04.837Z,0.20
2024-02-08T20:06:19.115Z,0.22
2024-02-08T20:08:24.340Z,0.20
2024-02-08T20:10:32.511Z,0.22
2024-02-08T20:12:39.057Z,0.30
2024-02-08T20:14:45.111Z,0.30
2024-02-08T20:16:48.525Z,0.30
2024-02-08T20:18:54.501Z,0.25
2024-02-08T20:21:05.235Z,0.30
2024-02-08T20:23:15.019Z,0.30
2024-02-08T20:25:17.526Z,0.22
2024-02-08T20:27:21.700Z,0.30
2024-02-08T20:29:29.638Z,0.30
2024-02-08T20:31:33.526Z,0.50
2024-02-08T20:33:39.020Z,0.30
2024-02-08T20:35:43.369Z,0.30
2024-02-08T20:37:46.939Z,0.30
2024-02-08T20:39:55.273Z,0.32
2024-02-08T20:42:01.093Z,0.30
2024-02-08T20:44:14.413Z,0.30
2024-02-08T20:46:17.592Z,0.32
2024-02-08T20:48:21.066Z,0.38
2024-02-08T20:50:25.058Z,0.30
2024-02-08T20:52:27.506Z,0.30
2024-02-08T20:54:33.501Z,0.30
2024-02-08T20:56:39.557Z,0.20
2024-02-08T20:58:42.132Z,0.40
2024-02-08T21:00:45.187Z,0.30
2024-02-08T21:02:48.374Z,0.30
2024-02-08T21:04:51.004Z,0.20
2024-02-08T21:06:55.482Z,0.30
2024-02-08T21:08:59.354Z,0.30
2024-02-08T21:11:02.778Z,0.25
2024-02-08T21:13:08.443Z,0.40
2024-02-08T21:15:13.391Z,0.50
2024-02-08T21:17:16.780Z,0.40
2024-02-08T21:19:22.396Z,0.35
2024-02-08T21:21:25.810Z,0.40
2024-02-08T21:23:34.866Z,0.60
2024-02-08T21:25:41.926Z,0.40
2024-02-08T21:27:45.834Z,0.38
2024-02-08T21:29:52.095Z,0.40
2024-02-08T21:31:57.739Z,0.40
2024-02-08T21:34:00.771Z,0.40
2024-02-08T21:36:05.790Z,0.50
2024-02-08T21:38:09.183Z,0.40
2024-02-08T21:40:13.030Z,0.50
2024-02-08T21:42:16.797Z,0.50
2024-02-08T21:44:22.080Z,0.60
2024-02-08T21:46:28.722Z,0.50
2024-02-08T21:48:32.294Z,0.50
2024-02-08T21:50:34.808Z,0.40
2024-02-08T21:52:37.950Z,0.60
2024-02-08T21:54:40.393Z,0.40
2024-02-08T21:56:42.816Z,0.40
2024-02-08T21:58:45.472Z,0.65
2024-02-08T22:03:10.659Z,0.30
2024-02-08T22:05:13.651Z,0.55
2024-02-08T22:07:19.183Z,0.63
2024-02-08T22:09:21.693Z,0.40
2024-02-08T22:11:24.150Z,0.45
2024-02-08T22:13:29.236Z,0.45
2024-02-08T22:15:33.632Z,0.50
2024-02-08T22:17:36.854Z,0.50
2024-02-08T22:19:47.904Z,0.35
2024-02-08T22:21:51.581Z,0.32
2024-02-08T22:23:54.423Z,0.30
2024-02-08T22:25:56.914Z,0.40
2024-02-08T22:28:01.596Z,0.40
2024-02-08T22:30:11.476Z,0.30
2024-02-08T22:32:14.785Z,0.30
2024-02-08T22:34:21.212Z,0.20
2024-02-08T22:36:27.115Z,0.30
2024-02-08T22:38:30.357Z,0.47
2024-02-08T22:40:37.826Z,0.30
2024-02-08T22:42:42.697Z,0.28
2024-02-08T22:44:47.198Z,0.40
2024-02-08T22:46:54.631Z,0.30
2024-02-08T22:48:59.836Z,0.45
2024-02-08T22:51:02.328Z,0.30
2024-02-08T22:53:08.975Z,0.30
2024-02-08T22:55:12.556Z,0.20
2024-02-08T22:57:14.988Z,0.30
2024-02-08T22:59:20.897Z,0.30
2024-02-08T23:01:35.188Z,0.30
2024-02-08T23:03:38.329Z,0.30
2024-02-08T23:05:41.666Z,0.30
2024-02-08T23:07:44.190Z,0.30
2024-02-08T23:09:49.256Z,0.20
2024-02-08T23:11:51.973Z,0.20
2024-02-08T23:13:54.466Z,0.20
2024-02-08T23:15:58.633Z,0.30
2024-02-08T23:18:04.161Z,0.28
2024-02-08T23:20:12.361Z,0.30
2024-02-08T23:22:14.881Z,0.30
2024-02-08T23:24:19.968Z,0.40
2024-02-08T23:26:24.917Z,0.20
2024-02-08T23:28:29.711Z,0.32
2024-02-08T23:30:33.815Z,0.30
2024-02-08T23:32:36.901Z,0.20
2024-02-08T23:34:42.385Z,0.30
2024-02-08T23:36:46.025Z,0.20
2024-02-08T23:38:48.780Z,0.20
2024-02-08T23:40:51.305Z,0.20
2024-02-08T23:42:58.658Z,0.30
2024-02-08T23:45:01.077Z,0.20
2024-02-08T23:47:03.483Z,0.20
2024-02-08T23:49:06.818Z,0.20
2024-02-08T23:51:09.963Z,0.30
2024-02-08T23:53:13.125Z,0.20
2024-02-08T23:55:20.171Z,0.20
2024-02-08T23:57:23.362Z,0.20
2024-02-08T23:59:30.190Z,0.20
